sensor_id;sensor_type;location;lat;lon;timestamp;P1;durP1;ratioP1;P2;durP2;ratioP2
16510;SDS011;8368;48.772;8.754;2024-01-16T00:00:54;5.10;;;2.60;;
16510;SDS011;8368;48.772;8.754;2024-01-16T00:03:19;2.67;;;2.47;;
16510;SDS011;8368;48.772;8.754;2024-01-16T00:05:45;4.07;;;2.90;;
16510;SDS011;8368;48.772;8.754;2024-01-16T00:08:10;2.50;;;2.30;;
16510;SDS011;8368;48.772;8.754;2024-01-16T00:10:36;8.00;;;3.03;;
16510;SDS011;8368;48.772;8.754;2024-01-16T00:13:01;4.70;;;2.73;;
16510;SDS011;8368;48.772;8.754;2024-01-16T00:15:27;3.50;;;2.57;;
16510;SDS011;8368;48.772;8.754;2024-01-16T00:17:52;4.93;;;2.50;;
16510;SDS011;8368;48.772;8.754;2024-01-16T00:20:18;8.43;;;2.53;;
16510;SDS011;8368;48.772;8.754;2024-01-16T00:22:44;5.93;;;2.70;;
16510;SDS011;8368;48.772;8.754;2024-01-16T00:25:09;5.83;;;2.50;;
16510;SDS011;8368;48.772;8.754;2024-01-16T00:27:35;6.43;;;2.77;;
16510;SDS011;8368;48.772;8.754;2024-01-16T00:30:00;2.63;;;2.43;;
16510;SDS011;8368;48.772;8.754;2024-01-16T00:32:26;3.73;;;3.07;;
16510;SDS011;8368;48.772;8.754;2024-01-16T00:34:52;7.17;;;2.80;;
16510;SDS011;8368;48.772;8.754;2024-01-16T00:37:17;2.70;;;2.50;;
16510;SDS011;8368;48.772;8.754;2024-01-16T00:39:43;2.50;;;2.30;;
16510;SDS011;8368;48.772;8.754;2024-01-16T00:42:08;4.57;;;2.40;;
16510;SDS011;8368;48.772;8.754;2024-01-16T00:44:34;5.10;;;2.77;;
16510;SDS011;8368;48.772;8.754;2024-01-16T00:47:00;3.50;;;2.90;;
16510;SDS011;8368;48.772;8.754;2024-01-16T00:49:26;3.27;;;2.90;;
16510;SDS011;8368;48.772;8.754;2024-01-16T00:51:52;4.57;;;3.13;;
16510;SDS011;8368;48.772;8.754;2024-01-16T00:54:18;5.70;;;3.07;;
16510;SDS011;8368;48.772;8.754;2024-01-16T00:56:43;4.07;;;2.97;;
16510;SDS011;8368;48.772;8.754;2024-01-16T00:59:09;3.97;;;2.90;;
16510;SDS011;8368;48.772;8.754;2024-01-16T01:01:36;3.67;;;2.77;;
16510;SDS011;8368;48.772;8.754;2024-01-16T01:04:02;2.77;;;2.53;;
16510;SDS011;8368;48.772;8.754;2024-01-16T01:06:28;6.53;;;2.70;;
16510;SDS011;8368;48.772;8.754;2024-01-16T01:08:53;4.17;;;2.87;;
16510;SDS011;8368;48.772;8.754;2024-01-16T01:11:19;2.73;;;2.47;;
16510;SDS011;8368;48.772;8.754;2024-01-16T01:13:44;7.70;;;2.67;;
16510;SDS011;8368;48.772;8.754;2024-01-16T01:16:10;3.73;;;3.00;;
16510;SDS011;8368;48.772;8.754;2024-01-16T01:18:35;7.93;;;3.10;;
16510;SDS011;8368;48.772;8.754;2024-01-16T01:21:01;3.73;;;3.00;;
16510;SDS011;8368;48.772;8.754;2024-01-16T01:23:26;6.27;;;3.13;;
16510;SDS011;8368;48.772;8.754;2024-01-16T01:25:52;3.43;;;2.97;;
16510;SDS011;8368;48.772;8.754;2024-01-16T01:28:18;5.93;;;2.97;;
16510;SDS011;8368;48.772;8.754;2024-01-16T01:30:43;3.77;;;3.20;;
16510;SDS011;8368;48.772;8.754;2024-01-16T01:33:09;7.60;;;2.53;;
16510;SDS011;8368;48.772;8.754;2024-01-16T01:35:34;3.10;;;2.80;;
16510;SDS011;8368;48.772;8.754;2024-01-16T01:38:00;8.33;;;3.20;;
16510;SDS011;8368;48.772;8.754;2024-01-16T01:40:26;7.30;;;2.97;;
16510;SDS011;8368;48.772;8.754;2024-01-16T01:42:51;3.90;;;2.83;;
16510;SDS011;8368;48.772;8.754;2024-01-16T01:45:17;4.03;;;3.33;;
16510;SDS011;8368;48.772;8.754;2024-01-16T01:47:42;5.87;;;3.40;;
16510;SDS011;8368;48.772;8.754;2024-01-16T01:50:08;8.47;;;3.17;;
16510;SDS011;8368;48.772;8.754;2024-01-16T01:52:35;5.90;;;3.17;;
16510;SDS011;8368;48.772;8.754;2024-01-16T01:55:03;4.77;;;3.17;;
16510;SDS011;8368;48.772;8.754;2024-01-16T01:57:29;5.53;;;3.00;;
16510;SDS011;8368;48.772;8.754;2024-01-16T01:59:55;6.80;;;2.87;;
16510;SDS011;8368;48.772;8.754;2024-01-16T02:02:20;7.23;;;3.27;;
16510;SDS011;8368;48.772;8.754;2024-01-16T02:04:46;5.00;;;3.30;;
16510;SDS011;8368;48.772;8.754;2024-01-16T02:07:12;3.57;;;3.27;;
16510;SDS011;8368;48.772;8.754;2024-01-16T02:09:39;5.77;;;2.63;;
16510;SDS011;8368;48.772;8.754;2024-01-16T02:12:05;4.03;;;2.67;;
16510;SDS011;8368;48.772;8.754;2024-01-16T02:14:32;2.97;;;2.57;;
16510;SDS011;8368;48.772;8.754;2024-01-16T02:16:57;6.40;;;3.37;;
16510;SDS011;8368;48.772;8.754;2024-01-16T02:19:23;3.27;;;2.97;;
16510;SDS011;8368;48.772;8.754;2024-01-16T02:21:51;7.93;;;3.27;;
16510;SDS011;8368;48.772;8.754;2024-01-16T02:24:19;4.00;;;3.33;;
16510;SDS011;8368;48.772;8.754;2024-01-16T02:26:46;3.53;;;2.93;;
16510;SDS011;8368;48.772;8.754;2024-01-16T02:29:12;5.80;;;3.50;;
16510;SDS011;8368;48.772;8.754;2024-01-16T02:31:37;5.47;;;3.50;;
16510;SDS011;8368;48.772;8.754;2024-01-16T02:34:03;5.67;;;2.60;;
16510;SDS011;8368;48.772;8.754;2024-01-16T02:36:31;5.30;;;3.50;;
16510;SDS011;8368;48.772;8.754;2024-01-16T02:38:57;3.40;;;2.73;;
16510;SDS011;8368;48.772;8.754;2024-01-16T02:41:23;3.30;;;2.90;;
16510;SDS011;8368;48.772;8.754;2024-01-16T02:43:48;5.03;;;3.10;;
16510;SDS011;8368;48.772;8.754;2024-01-16T02:46:14;4.50;;;2.90;;
16510;SDS011;8368;48.772;8.754;2024-01-16T02:48:40;8.27;;;3.47;;
16510;SDS011;8368;48.772;8.754;2024-01-16T02:51:07;6.33;;;3.17;;
16510;SDS011;8368;48.772;8.754;2024-01-16T02:53:33;7.67;;;3.93;;
16510;SDS011;8368;48.772;8.754;2024-01-16T02:55:59;3.40;;;3.10;;
16510;SDS011;8368;48.772;8.754;2024-01-16T02:58:25;5.57;;;2.90;;
16510;SDS011;8368;48.772;8.754;2024-01-16T03:00:54;3.93;;;2.93;;
16510;SDS011;8368;48.772;8.754;2024-01-16T03:03:20;4.17;;;2.80;;
16510;SDS011;8368;48.772;8.754;2024-01-16T03:05:46;3.53;;;3.23;;
16510;SDS011;8368;48.772;8.754;2024-01-16T03:08:12;5.07;;;2.80;;
16510;SDS011;8368;48.772;8.754;2024-01-16T03:10:38;4.83;;;2.90;;
16510;SDS011;8368;48.772;8.754;2024-01-16T03:13:03;4.67;;;3.03;;
16510;SDS011;8368;48.772;8.754;2024-01-16T03:15:29;3.57;;;2.47;;
16510;SDS011;8368;48.772;8.754;2024-01-16T03:17:57;2.70;;;2.47;;
16510;SDS011;8368;48.772;8.754;2024-01-16T03:20:23;4.37;;;2.97;;
16510;SDS011;8368;48.772;8.754;2024-01-16T03:22:49;4.47;;;3.10;;
16510;SDS011;8368;48.772;8.754;2024-01-16T03:25:15;2.97;;;2.63;;
16510;SDS011;8368;48.772;8.754;2024-01-16T03:27:41;4.37;;;2.67;;
16510;SDS011;8368;48.772;8.754;2024-01-16T03:30:07;4.17;;;2.97;;
16510;SDS011;8368;48.772;8.754;2024-01-16T03:32:34;5.57;;;2.90;;
16510;SDS011;8368;48.772;8.754;2024-01-16T03:35:00;8.73;;;3.70;;
16510;SDS011;8368;48.772;8.754;2024-01-16T03:37:26;4.07;;;2.83;;
16510;SDS011;8368;48.772;8.754;2024-01-16T03:39:51;4.60;;;2.93;;
16510;SDS011;8368;48.772;8.754;2024-01-16T03:42:17;9.57;;;3.30;;
16510;SDS011;8368;48.772;8.754;2024-01-16T03:44:43;5.23;;;3.07;;
16510;SDS011;8368;48.772;8.754;2024-01-16T03:47:09;3.00;;;2.27;;
16510;SDS011;8368;48.772;8.754;2024-01-16T03:49:34;5.73;;;2.67;;
16510;SDS011;8368;48.772;8.754;2024-01-16T03:52:00;4.23;;;2.57;;
16510;SDS011;8368;48.772;8.754;2024-01-16T03:54:26;8.70;;;2.93;;
16510;SDS011;8368;48.772;8.754;2024-01-16T03:56:52;4.87;;;2.50;;
16510;SDS011;8368;48.772;8.754;2024-01-16T03:59:18;6.53;;;2.77;;
16510;SDS011;8368;48.772;8.754;2024-01-16T04:01:43;3.33;;;2.83;;
16510;SDS011;8368;48.772;8.754;2024-01-16T04:04:10;6.50;;;3.07;;
16510;SDS011;8368;48.772;8.754;2024-01-16T04:06:36;6.17;;;2.93;;
16510;SDS011;8368;48.772;8.754;2024-01-16T04:09:02;4.13;;;2.87;;
16510;SDS011;8368;48.772;8.754;2024-01-16T04:11:28;3.50;;;2.90;;
16510;SDS011;8368;48.772;8.754;2024-01-16T04:13:54;3.90;;;3.00;;
16510;SDS011;8368;48.772;8.754;2024-01-16T04:16:20;3.90;;;3.00;;
16510;SDS011;8368;48.772;8.754;2024-01-16T04:18:46;6.50;;;3.13;;
16510;SDS011;8368;48.772;8.754;2024-01-16T04:21:11;5.93;;;2.83;;
16510;SDS011;8368;48.772;8.754;2024-01-16T04:23:37;3.57;;;3.00;;
16510;SDS011;8368;48.772;8.754;2024-01-16T04:26:02;2.57;;;2.37;;
16510;SDS011;8368;48.772;8.754;2024-01-16T04:28:28;5.07;;;2.87;;
16510;SDS011;8368;48.772;8.754;2024-01-16T04:30:54;8.47;;;3.10;;
16510;SDS011;8368;48.772;8.754;2024-01-16T04:33:19;6.17;;;2.47;;
16510;SDS011;8368;48.772;8.754;2024-01-16T04:35:45;2.90;;;2.30;;
16510;SDS011;8368;48.772;8.754;2024-01-16T04:38:11;7.20;;;2.67;;
16510;SDS011;8368;48.772;8.754;2024-01-16T04:40:37;3.13;;;2.70;;
16510;SDS011;8368;48.772;8.754;2024-01-16T04:43:02;3.83;;;2.97;;
16510;SDS011;8368;48.772;8.754;2024-01-16T04:45:28;5.57;;;2.77;;
16510;SDS011;8368;48.772;8.754;2024-01-16T04:47:53;5.97;;;2.57;;
16510;SDS011;8368;48.772;8.754;2024-01-16T04:50:19;4.17;;;2.67;;
16510;SDS011;8368;48.772;8.754;2024-01-16T04:52:44;6.63;;;2.63;;
16510;SDS011;8368;48.772;8.754;2024-01-16T04:55:10;6.30;;;2.53;;
16510;SDS011;8368;48.772;8.754;2024-01-16T04:57:36;3.60;;;2.93;;
16510;SDS011;8368;48.772;8.754;2024-01-16T05:00:01;5.03;;;2.87;;
16510;SDS011;8368;48.772;8.754;2024-01-16T05:02:31;4.27;;;2.20;;
16510;SDS011;8368;48.772;8.754;2024-01-16T05:04:57;3.73;;;2.57;;
16510;SDS011;8368;48.772;8.754;2024-01-16T05:07:23;3.90;;;3.30;;
16510;SDS011;8368;48.772;8.754;2024-01-16T05:09:49;3.80;;;2.53;;
16510;SDS011;8368;48.772;8.754;2024-01-16T05:12:14;2.50;;;2.30;;
16510;SDS011;8368;48.772;8.754;2024-01-16T05:14:40;4.90;;;2.83;;
16510;SDS011;8368;48.772;8.754;2024-01-16T05:17:05;9.27;;;3.00;;
16510;SDS011;8368;48.772;8.754;2024-01-16T05:19:31;4.63;;;2.63;;
16510;SDS011;8368;48.772;8.754;2024-01-16T05:21:57;6.53;;;3.03;;
16510;SDS011;8368;48.772;8.754;2024-01-16T05:24:22;3.63;;;2.23;;
16510;SDS011;8368;48.772;8.754;2024-01-16T05:26:48;3.27;;;2.57;;
16510;SDS011;8368;48.772;8.754;2024-01-16T05:29:13;6.30;;;3.90;;
16510;SDS011;8368;48.772;8.754;2024-01-16T05:31:40;6.70;;;4.20;;
16510;SDS011;8368;48.772;8.754;2024-01-16T05:34:06;5.43;;;3.40;;
16510;SDS011;8368;48.772;8.754;2024-01-16T05:36:32;9.23;;;3.57;;
16510;SDS011;8368;48.772;8.754;2024-01-16T05:38:58;6.87;;;3.17;;
16510;SDS011;8368;48.772;8.754;2024-01-16T05:41:23;4.60;;;2.60;;
16510;SDS011;8368;48.772;8.754;2024-01-16T05:43:49;4.23;;;2.43;;
16510;SDS011;8368;48.772;8.754;2024-01-16T05:46:14;4.03;;;2.70;;
16510;SDS011;8368;48.772;8.754;2024-01-16T05:48:40;2.87;;;2.23;;
16510;SDS011;8368;48.772;8.754;2024-01-16T05:51:05;2.80;;;2.23;;
16510;SDS011;8368;48.772;8.754;2024-01-16T05:53:31;4.90;;;2.17;;
16510;SDS011;8368;48.772;8.754;2024-01-16T05:55:56;2.67;;;2.23;;
16510;SDS011;8368;48.772;8.754;2024-01-16T05:58:22;4.03;;;2.60;;
16510;SDS011;8368;48.772;8.754;2024-01-16T06:00:47;3.90;;;2.77;;
16510;SDS011;8368;48.772;8.754;2024-01-16T06:03:13;2.40;;;2.20;;
16510;SDS011;8368;48.772;8.754;2024-01-16T06:05:39;2.53;;;2.30;;
16510;SDS011;8368;48.772;8.754;2024-01-16T06:08:04;4.93;;;2.67;;
16510;SDS011;8368;48.772;8.754;2024-01-16T06:10:30;4.23;;;2.30;;
16510;SDS011;8368;48.772;8.754;2024-01-16T06:12:56;8.37;;;3.50;;
16510;SDS011;8368;48.772;8.754;2024-01-16T06:15:21;8.57;;;3.43;;
16510;SDS011;8368;48.772;8.754;2024-01-16T06:17:48;5.13;;;2.60;;
16510;SDS011;8368;48.772;8.754;2024-01-16T06:20:13;3.03;;;2.43;;
16510;SDS011;8368;48.772;8.754;2024-01-16T06:22:39;4.53;;;2.33;;
16510;SDS011;8368;48.772;8.754;2024-01-16T06:25:04;4.07;;;2.60;;
16510;SDS011;8368;48.772;8.754;2024-01-16T06:27:31;4.87;;;2.70;;
16510;SDS011;8368;48.772;8.754;2024-01-16T06:29:57;3.73;;;2.10;;
16510;SDS011;8368;48.772;8.754;2024-01-16T06:32:23;4.03;;;2.80;;
16510;SDS011;8368;48.772;8.754;2024-01-16T06:34:48;2.30;;;2.10;;
16510;SDS011;8368;48.772;8.754;2024-01-16T06:37:14;2.77;;;2.53;;
16510;SDS011;8368;48.772;8.754;2024-01-16T06:39:39;3.03;;;2.57;;
16510;SDS011;8368;48.772;8.754;2024-01-16T06:42:05;5.70;;;3.10;;
16510;SDS011;8368;48.772;8.754;2024-01-16T06:44:31;5.30;;;2.77;;
16510;SDS011;8368;48.772;8.754;2024-01-16T06:46:56;7.87;;;3.30;;
16510;SDS011;8368;48.772;8.754;2024-01-16T06:49:22;4.43;;;2.70;;
16510;SDS011;8368;48.772;8.754;2024-01-16T06:51:47;2.57;;;2.37;;
16510;SDS011;8368;48.772;8.754;2024-01-16T06:54:13;5.07;;;2.33;;
16510;SDS011;8368;48.772;8.754;2024-01-16T06:56:38;3.57;;;2.90;;
16510;SDS011;8368;48.772;8.754;2024-01-16T06:59:04;5.63;;;3.53;;
16510;SDS011;8368;48.772;8.754;2024-01-16T07:01:29;5.37;;;3.43;;
16510;SDS011;8368;48.772;8.754;2024-01-16T07:03:55;3.50;;;3.20;;
16510;SDS011;8368;48.772;8.754;2024-01-16T07:06:21;3.43;;;2.73;;
16510;SDS011;8368;48.772;8.754;2024-01-16T07:08:46;4.57;;;2.87;;
16510;SDS011;8368;48.772;8.754;2024-01-16T07:11:12;3.23;;;2.47;;
16510;SDS011;8368;48.772;8.754;2024-01-16T07:13:39;3.17;;;2.50;;
16510;SDS011;8368;48.772;8.754;2024-01-16T07:16:06;7.73;;;2.97;;
16510;SDS011;8368;48.772;8.754;2024-01-16T07:18:34;6.03;;;3.20;;
16510;SDS011;8368;48.772;8.754;2024-01-16T07:21:00;3.67;;;2.87;;
16510;SDS011;8368;48.772;8.754;2024-01-16T07:23:26;5.30;;;4.07;;
16510;SDS011;8368;48.772;8.754;2024-01-16T07:25:51;6.47;;;3.13;;
16510;SDS011;8368;48.772;8.754;2024-01-16T07:28:17;6.87;;;3.70;;
16510;SDS011;8368;48.772;8.754;2024-01-16T07:30:42;11.03;;;5.37;;
16510;SDS011;8368;48.772;8.754;2024-01-16T07:33:08;5.90;;;4.03;;
16510;SDS011;8368;48.772;8.754;2024-01-16T07:35:33;5.50;;;3.60;;
16510;SDS011;8368;48.772;8.754;2024-01-16T07:37:59;3.30;;;3.00;;
16510;SDS011;8368;48.772;8.754;2024-01-16T07:40:25;9.30;;;4.03;;
16510;SDS011;8368;48.772;8.754;2024-01-16T07:42:50;4.60;;;3.50;;
16510;SDS011;8368;48.772;8.754;2024-01-16T07:45:16;9.17;;;4.20;;
16510;SDS011;8368;48.772;8.754;2024-01-16T07:47:42;6.23;;;3.10;;
16510;SDS011;8368;48.772;8.754;2024-01-16T07:50:07;7.53;;;3.37;;
16510;SDS011;8368;48.772;8.754;2024-01-16T07:52:33;4.10;;;2.70;;
16510;SDS011;8368;48.772;8.754;2024-01-16T07:54:59;6.07;;;3.13;;
16510;SDS011;8368;48.772;8.754;2024-01-16T07:57:24;5.47;;;3.30;;
16510;SDS011;8368;48.772;8.754;2024-01-16T07:59:50;4.00;;;2.93;;
16510;SDS011;8368;48.772;8.754;2024-01-16T08:02:15;7.50;;;2.63;;
16510;SDS011;8368;48.772;8.754;2024-01-16T08:04:42;6.77;;;3.33;;
16510;SDS011;8368;48.772;8.754;2024-01-16T08:07:07;7.80;;;3.23;;
16510;SDS011;8368;48.772;8.754;2024-01-16T08:09:33;7.43;;;3.50;;
16510;SDS011;8368;48.772;8.754;2024-01-16T08:12:00;4.73;;;3.37;;
16510;SDS011;8368;48.772;8.754;2024-01-16T08:14:27;5.37;;;3.30;;
16510;SDS011;8368;48.772;8.754;2024-01-16T08:16:53;3.27;;;2.73;;
16510;SDS011;8368;48.772;8.754;2024-01-16T08:19:19;4.73;;;2.90;;
16510;SDS011;8368;48.772;8.754;2024-01-16T08:21:45;6.17;;;3.60;;
16510;SDS011;8368;48.772;8.754;2024-01-16T08:24:10;3.90;;;3.37;;
16510;SDS011;8368;48.772;8.754;2024-01-16T08:26:36;6.93;;;3.57;;
16510;SDS011;8368;48.772;8.754;2024-01-16T08:29:01;6.83;;;3.13;;
16510;SDS011;8368;48.772;8.754;2024-01-16T08:31:27;4.77;;;3.40;;
16510;SDS011;8368;48.772;8.754;2024-01-16T08:33:52;7.17;;;3.30;;
16510;SDS011;8368;48.772;8.754;2024-01-16T08:36:21;4.30;;;3.23;;
16510;SDS011;8368;48.772;8.754;2024-01-16T08:38:46;3.60;;;3.30;;
16510;SDS011;8368;48.772;8.754;2024-01-16T08:41:12;5.87;;;3.53;;
16510;SDS011;8368;48.772;8.754;2024-01-16T08:43:37;4.67;;;3.30;;
16510;SDS011;8368;48.772;8.754;2024-01-16T08:46:03;4.63;;;3.33;;
16510;SDS011;8368;48.772;8.754;2024-01-16T08:48:29;7.07;;;3.27;;
16510;SDS011;8368;48.772;8.754;2024-01-16T08:50:54;3.43;;;2.70;;
16510;SDS011;8368;48.772;8.754;2024-01-16T08:53:20;11.87;;;3.77;;
16510;SDS011;8368;48.772;8.754;2024-01-16T08:55:48;4.43;;;2.77;;
16510;SDS011;8368;48.772;8.754;2024-01-16T08:58:14;3.97;;;3.03;;
16510;SDS011;8368;48.772;8.754;2024-01-16T09:00:40;18.40;;;6.37;;
16510;SDS011;8368;48.772;8.754;2024-01-16T09:03:05;12.77;;;6.80;;
16510;SDS011;8368;48.772;8.754;2024-01-16T09:05:31;31.70;;;13.97;;
16510;SDS011;8368;48.772;8.754;2024-01-16T09:07:56;18.03;;;8.00;;
16510;SDS011;8368;48.772;8.754;2024-01-16T09:10:22;13.97;;;6.87;;
16510;SDS011;8368;48.772;8.754;2024-01-16T09:12:47;19.17;;;10.70;;
16510;SDS011;8368;48.772;8.754;2024-01-16T09:15:13;10.17;;;6.40;;
16510;SDS011;8368;48.772;8.754;2024-01-16T09:17:39;25.17;;;11.43;;
16510;SDS011;8368;48.772;8.754;2024-01-16T09:20:05;25.37;;;12.30;;
16510;SDS011;8368;48.772;8.754;2024-01-16T09:22:31;13.67;;;6.57;;
16510;SDS011;8368;48.772;8.754;2024-01-16T09:24:57;7.33;;;4.97;;
16510;SDS011;8368;48.772;8.754;2024-01-16T09:27:23;10.80;;;6.40;;
16510;SDS011;8368;48.772;8.754;2024-01-16T09:29:48;13.33;;;7.13;;
16510;SDS011;8368;48.772;8.754;2024-01-16T09:32:14;11.53;;;6.53;;
16510;SDS011;8368;48.772;8.754;2024-01-16T09:34:39;19.87;;;8.53;;
16510;SDS011;8368;48.772;8.754;2024-01-16T09:37:05;11.63;;;5.87;;
16510;SDS011;8368;48.772;8.754;2024-01-16T09:39:30;15.13;;;9.87;;
16510;SDS011;8368;48.772;8.754;2024-01-16T09:41:57;10.57;;;6.23;;
16510;SDS011;8368;48.772;8.754;2024-01-16T09:44:27;10.33;;;4.93;;
16510;SDS011;8368;48.772;8.754;2024-01-16T09:46:53;6.47;;;4.67;;
16510;SDS011;8368;48.772;8.754;2024-01-16T09:49:21;6.83;;;4.57;;
16510;SDS011;8368;48.772;8.754;2024-01-16T09:51:48;4.10;;;3.27;;
16510;SDS011;8368;48.772;8.754;2024-01-16T09:54:13;8.40;;;4.17;;
16510;SDS011;8368;48.772;8.754;2024-01-16T09:56:41;7.37;;;3.80;;
16510;SDS011;8368;48.772;8.754;2024-01-16T09:59:08;5.90;;;3.93;;
16510;SDS011;8368;48.772;8.754;2024-01-16T10:01:35;5.30;;;3.77;;
16510;SDS011;8368;48.772;8.754;2024-01-16T10:04:02;5.17;;;3.90;;
16510;SDS011;8368;48.772;8.754;2024-01-16T10:06:28;8.97;;;3.30;;
16510;SDS011;8368;48.772;8.754;2024-01-16T10:08:56;6.87;;;3.00;;
16510;SDS011;8368;48.772;8.754;2024-01-16T10:11:22;9.13;;;4.83;;
16510;SDS011;8368;48.772;8.754;2024-01-16T10:13:47;6.97;;;4.03;;
16510;SDS011;8368;48.772;8.754;2024-01-16T10:16:13;6.87;;;3.53;;
16510;SDS011;8368;48.772;8.754;2024-01-16T10:18:39;4.73;;;2.90;;
16510;SDS011;8368;48.772;8.754;2024-01-16T10:21:04;3.80;;;2.70;;
16510;SDS011;8368;48.772;8.754;2024-01-16T10:23:44;2.47;;;2.30;;
16510;SDS011;8368;48.772;8.754;2024-01-16T10:26:10;3.17;;;2.30;;
16510;SDS011;8368;48.772;8.754;2024-01-16T10:28:40;6.80;;;2.57;;
16510;SDS011;8368;48.772;8.754;2024-01-16T10:31:08;2.77;;;2.40;;
16510;SDS011;8368;48.772;8.754;2024-01-16T10:33:34;3.00;;;2.80;;
16510;SDS011;8368;48.772;8.754;2024-01-16T10:36:15;4.37;;;2.47;;
16510;SDS011;8368;48.772;8.754;2024-01-16T10:38:43;2.70;;;1.90;;
16510;SDS011;8368;48.772;8.754;2024-01-16T10:41:10;4.17;;;2.27;;
16510;SDS011;8368;48.772;8.754;2024-01-16T10:43:43;4.80;;;2.00;;
16510;SDS011;8368;48.772;8.754;2024-01-16T10:46:12;4.20;;;2.50;;
16510;SDS011;8368;48.772;8.754;2024-01-16T10:48:40;2.27;;;2.07;;
16510;SDS011;8368;48.772;8.754;2024-01-16T10:51:07;4.33;;;2.03;;
16510;SDS011;8368;48.772;8.754;2024-01-16T10:53:34;1.73;;;1.63;;
16510;SDS011;8368;48.772;8.754;2024-01-16T10:56:00;2.73;;;1.60;;
16510;SDS011;8368;48.772;8.754;2024-01-16T10:58:27;2.37;;;2.13;;
16510;SDS011;8368;48.772;8.754;2024-01-16T11:00:56;5.20;;;2.23;;
16510;SDS011;8368;48.772;8.754;2024-01-16T11:03:28;6.47;;;2.00;;
16510;SDS011;8368;48.772;8.754;2024-01-16T11:06:05;2.50;;;2.23;;
16510;SDS011;8368;48.772;8.754;2024-01-16T11:08:33;5.47;;;2.20;;
16510;SDS011;8368;48.772;8.754;2024-01-16T11:11:02;3.43;;;2.30;;
16510;SDS011;8368;48.772;8.754;2024-01-16T11:13:30;3.17;;;1.93;;
16510;SDS011;8368;48.772;8.754;2024-01-16T11:16:00;4.13;;;1.90;;
16510;SDS011;8368;48.772;8.754;2024-01-16T11:18:29;4.47;;;2.23;;
16510;SDS011;8368;48.772;8.754;2024-01-16T11:20:57;3.17;;;1.93;;
16510;SDS011;8368;48.772;8.754;2024-01-16T11:23:23;2.87;;;1.83;;
16510;SDS011;8368;48.772;8.754;2024-01-16T11:25:49;2.40;;;1.97;;
16510;SDS011;8368;48.772;8.754;2024-01-16T11:28:15;2.20;;;2.00;;
16510;SDS011;8368;48.772;8.754;2024-01-16T11:30:41;4.90;;;1.97;;
16510;SDS011;8368;48.772;8.754;2024-01-16T11:35:57;3.77;;;2.30;;
16510;SDS011;8368;48.772;8.754;2024-01-16T11:38:23;1.57;;;1.50;;
16510;SDS011;8368;48.772;8.754;2024-01-16T11:40:52;3.07;;;1.50;;
16510;SDS011;8368;48.772;8.754;2024-01-16T11:46:03;11.70;;;5.20;;
16510;SDS011;8368;48.772;8.754;2024-01-16T11:48:32;4.33;;;2.23;;
16510;SDS011;8368;48.772;8.754;2024-01-16T11:50:58;13.17;;;4.60;;
16510;SDS011;8368;48.772;8.754;2024-01-16T11:56:08;4.43;;;2.23;;
16510;SDS011;8368;48.772;8.754;2024-01-16T11:58:52;2.87;;;2.00;;
16510;SDS011;8368;48.772;8.754;2024-01-16T12:01:31;5.30;;;1.73;;
16510;SDS011;8368;48.772;8.754;2024-01-16T12:04:01;6.57;;;2.93;;
16510;SDS011;8368;48.772;8.754;2024-01-16T12:06:30;10.13;;;3.93;;
16510;SDS011;8368;48.772;8.754;2024-01-16T12:09:15;3.83;;;1.63;;
16510;SDS011;8368;48.772;8.754;2024-01-16T12:11:44;3.07;;;1.17;;
16510;SDS011;8368;48.772;8.754;2024-01-16T12:14:29;6.63;;;2.73;;
16510;SDS011;8368;48.772;8.754;2024-01-16T12:17:11;7.53;;;3.43;;
16510;SDS011;8368;48.772;8.754;2024-01-16T12:19:37;5.00;;;2.60;;
16510;SDS011;8368;48.772;8.754;2024-01-16T12:22:05;2.77;;;2.20;;
16510;SDS011;8368;48.772;8.754;2024-01-16T12:24:33;2.13;;;1.60;;
16510;SDS011;8368;48.772;8.754;2024-01-16T12:26:59;4.67;;;1.80;;
16510;SDS011;8368;48.772;8.754;2024-01-16T12:29:24;3.20;;;2.10;;
16510;SDS011;8368;48.772;8.754;2024-01-16T12:31:50;3.33;;;2.17;;
16510;SDS011;8368;48.772;8.754;2024-01-16T12:34:15;1.73;;;1.30;;
16510;SDS011;8368;48.772;8.754;2024-01-16T12:36:41;2.60;;;1.67;;
16510;SDS011;8368;48.772;8.754;2024-01-16T12:39:08;3.10;;;1.90;;
16510;SDS011;8368;48.772;8.754;2024-01-16T12:41:38;2.70;;;1.80;;
16510;SDS011;8368;48.772;8.754;2024-01-16T12:44:07;2.57;;;1.40;;
16510;SDS011;8368;48.772;8.754;2024-01-16T12:46:32;1.47;;;1.37;;
16510;SDS011;8368;48.772;8.754;2024-01-16T12:49:01;1.77;;;1.33;;
16510;SDS011;8368;48.772;8.754;2024-01-16T12:51:27;1.63;;;1.40;;
16510;SDS011;8368;48.772;8.754;2024-01-16T12:53:53;3.13;;;1.60;;
16510;SDS011;8368;48.772;8.754;2024-01-16T12:56:19;1.90;;;1.40;;
16510;SDS011;8368;48.772;8.754;2024-01-16T12:58:45;1.43;;;1.33;;
16510;SDS011;8368;48.772;8.754;2024-01-16T13:01:24;2.17;;;1.50;;
16510;SDS011;8368;48.772;8.754;2024-01-16T13:03:51;1.80;;;1.70;;
16510;SDS011;8368;48.772;8.754;2024-01-16T13:06:17;1.60;;;1.50;;
16510;SDS011;8368;48.772;8.754;2024-01-16T13:08:49;2.60;;;1.53;;
16510;SDS011;8368;48.772;8.754;2024-01-16T13:11:15;2.20;;;2.00;;
16510;SDS011;8368;48.772;8.754;2024-01-16T13:13:45;3.63;;;2.60;;
16510;SDS011;8368;48.772;8.754;2024-01-16T13:16:16;2.03;;;1.70;;
16510;SDS011;8368;48.772;8.754;2024-01-16T13:18:42;2.20;;;1.77;;
16510;SDS011;8368;48.772;8.754;2024-01-16T13:21:07;2.33;;;2.10;;
16510;SDS011;8368;48.772;8.754;2024-01-16T13:23:33;6.53;;;2.67;;
16510;SDS011;8368;48.772;8.754;2024-01-16T13:26:00;2.30;;;2.10;;
16510;SDS011;8368;48.772;8.754;2024-01-16T13:28:28;3.57;;;1.77;;
16510;SDS011;8368;48.772;8.754;2024-01-16T13:30:54;6.40;;;3.17;;
16510;SDS011;8368;48.772;8.754;2024-01-16T13:33:21;7.80;;;3.70;;
16510;SDS011;8368;48.772;8.754;2024-01-16T13:35:53;3.30;;;2.20;;
16510;SDS011;8368;48.772;8.754;2024-01-16T13:38:22;2.03;;;1.93;;
16510;SDS011;8368;48.772;8.754;2024-01-16T13:40:48;1.80;;;1.70;;
16510;SDS011;8368;48.772;8.754;2024-01-16T13:43:15;5.33;;;3.00;;
16510;SDS011;8368;48.772;8.754;2024-01-16T13:45:41;4.60;;;3.13;;
16510;SDS011;8368;48.772;8.754;2024-01-16T13:48:06;4.70;;;2.83;;
16510;SDS011;8368;48.772;8.754;2024-01-16T13:50:32;6.27;;;2.77;;
16510;SDS011;8368;48.772;8.754;2024-01-16T13:52:58;9.53;;;3.90;;
16510;SDS011;8368;48.772;8.754;2024-01-16T13:55:25;7.23;;;3.50;;
16510;SDS011;8368;48.772;8.754;2024-01-16T13:57:51;14.27;;;6.40;;
16510;SDS011;8368;48.772;8.754;2024-01-16T14:00:16;21.27;;;11.07;;
16510;SDS011;8368;48.772;8.754;2024-01-16T14:02:43;14.83;;;7.03;;
16510;SDS011;8368;48.772;8.754;2024-01-16T14:05:19;10.87;;;5.67;;
16510;SDS011;8368;48.772;8.754;2024-01-16T14:07:49;17.10;;;7.63;;
16510;SDS011;8368;48.772;8.754;2024-01-16T14:10:16;6.87;;;3.97;;
16510;SDS011;8368;48.772;8.754;2024-01-16T14:12:43;3.70;;;2.80;;
16510;SDS011;8368;48.772;8.754;2024-01-16T14:15:10;3.50;;;2.57;;
16510;SDS011;8368;48.772;8.754;2024-01-16T14:17:48;8.77;;;4.50;;
16510;SDS011;8368;48.772;8.754;2024-01-16T14:20:15;4.37;;;2.93;;
16510;SDS011;8368;48.772;8.754;2024-01-16T14:22:41;4.60;;;2.23;;
16510;SDS011;8368;48.772;8.754;2024-01-16T14:25:08;1.97;;;1.87;;
16510;SDS011;8368;48.772;8.754;2024-01-16T14:27:41;2.93;;;1.87;;
16510;SDS011;8368;48.772;8.754;2024-01-16T14:30:09;2.97;;;1.97;;
16510;SDS011;8368;48.772;8.754;2024-01-16T14:32:36;7.50;;;2.70;;
16510;SDS011;8368;48.772;8.754;2024-01-16T14:35:11;4.00;;;2.27;;
16510;SDS011;8368;48.772;8.754;2024-01-16T14:37:39;4.40;;;2.10;;
16510;SDS011;8368;48.772;8.754;2024-01-16T14:40:06;2.00;;;1.83;;
16510;SDS011;8368;48.772;8.754;2024-01-16T14:42:41;3.37;;;2.17;;
16510;SDS011;8368;48.772;8.754;2024-01-16T14:45:08;3.13;;;2.10;;
16510;SDS011;8368;48.772;8.754;2024-01-16T14:47:34;2.60;;;2.00;;
16510;SDS011;8368;48.772;8.754;2024-01-16T14:49:59;2.23;;;2.07;;
16510;SDS011;8368;48.772;8.754;2024-01-16T14:52:25;2.60;;;2.30;;
16510;SDS011;8368;48.772;8.754;2024-01-16T14:54:50;4.13;;;2.70;;
16510;SDS011;8368;48.772;8.754;2024-01-16T14:57:16;4.00;;;2.13;;
16510;SDS011;8368;48.772;8.754;2024-01-16T14:59:43;4.63;;;2.87;;
16510;SDS011;8368;48.772;8.754;2024-01-16T15:02:10;5.47;;;3.40;;
16510;SDS011;8368;48.772;8.754;2024-01-16T15:04:39;2.73;;;2.53;;